Date,TemperatureHighF,TemperatureAvgF,TemperatureLowF,DewpointHighF,DewpointAvgF,DewpointLowF,HumidityHigh,HumidityAvg,HumidityLow,PressureMaxIn,PressureMinIn,WindSpeedMaxMPH,WindSpeedAvgMPH,GustSpeedMaxMPH,PrecipitationSumIn
2013-9-1,85.0,78.0,73.0,75.0,70.6,-99.9,92,80,67,30.00,29.93,9,3,14,0.00
2013-9-2,86.0,77.9,72.0,76.0,73.1,70.0,96,86,66,30.03,29.94,16,3,28,0.00
2013-9-3,86.0,79.0,72.0,76.0,72.2,70.0,96,80,62,30.02,29.94,9,4,15,0.00
2013-9-4,86.0,82.8,78.0,77.0,75.1,73.0,84,77,69,30.07,29.95,10,5,15,0.00
2013-9-5,86.0,83.4,81.0,77.0,75.2,74.0,85,76,69,30.07,30.00,9,6,15,0.00
2013-9-6,86.0,83.5,81.0,77.0,75.1,73.0,85,75,67,30.04,29.93,8,5,16,0.00
2013-9-7,84.0,77.8,72.0,76.0,72.9,68.0,94,85,68,29.98,29.91,8,4,16,0.00
2013-9-8,85.0,77.6,73.0,75.0,70.1,-99.9,94,80,66,29.95,29.86,7,4,13,0.00
2013-9-9,85.0,79.6,74.0,74.0,71.4,69.0,87,76,64,30.01,29.90,11,4,21,0.00
2013-9-10,84.0,80.8,76.0,74.0,72.3,69.0,86,75,62,30.04,29.96,13,6,27,0.00
2013-9-11,81.0,79.4,73.0,74.0,72.8,71.0,93,80,72,30.07,29.98,13,5,24,0.00
2013-9-12,82.0,78.8,75.0,75.0,73.6,71.0,93,84,74,30.02,29.89,9,3,13,0.00
2013-9-13,84.0,79.4,73.0,75.0,73.3,71.0,96,82,70,29.92,29.80,10,4,17,0.00
2013-9-14,86.0,81.2,75.0,75.0,72.9,70.0,92,76,60,29.96,29.82,10,4,16,0.00
2013-9-15,84.0,78.9,75.0,77.0,71.3,-99.9,96,80,75,30.06,29.92,9,4,20,0.00
2013-9-16,84.0,79.6,75.0,76.0,74.3,71.0,91,83,74,30.04,29.97,12,6,25,0.00
2013-9-17,80.0,77.8,71.0,76.0,73.2,69.0,96,86,78,30.04,29.92,8,5,16,0.00
2013-9-18,80.0,77.4,73.0,74.0,72.7,70.0,95,85,75,30.00,29.92,8,4,20,0.00
2013-9-19,85.0,80.0,73.0,74.0,72.5,68.0,96,78,66,30.01,29.93,9,6,20,0.00
2013-9-20,83.0,80.5,77.0,71.0,67.9,66.0,78,65,57,30.00,29.90,11,6,20,0.00
2013-9-21,83.0,80.1,76.0,71.0,69.4,68.0,77,69,62,29.92,29.78,8,4,14,0.00
2013-9-22,85.0,79.5,74.0,76.0,71.3,-99.9,93,78,67,29.86,29.76,11,4,18,0.00
2013-9-23,85.0,79.5,77.0,77.0,74.8,72.0,95,85,69,29.98,29.86,9,3,14,0.00
2013-9-24,89.0,79.0,74.0,79.0,74.4,70.0,96,86,65,29.98,29.87,7,2,16,0.00
2013-9-25,88.0,79.5,73.0,77.0,71.6,69.0,93,77,53,29.90,29.77,11,5,25,0.00